sensor_id;sensor_type;location;lat;lon;timestamp;temperature;humidity
6373;DHT22;3219;51.362;7.074;2022-12-18T00:01:17;-1.80;99.90
6373;DHT22;3219;51.362;7.074;2022-12-18T00:03:47;-1.80;99.90
6373;DHT22;3219;51.362;7.074;2022-12-18T00:06:15;-1.80;99.90
6373;DHT22;3219;51.362;7.074;2022-12-18T00:08:42;-1.80;99.90
6373;DHT22;3219;51.362;7.074;2022-12-18T00:11:13;-1.80;99.90
6373;DHT22;3219;51.362;7.074;2022-12-18T00:13:43;-1.80;99.90
6373;DHT22;3219;51.362;7.074;2022-12-18T00:16:13;-1.80;99.90
6373;DHT22;3219;51.362;7.074;2022-12-18T00:18:47;-1.80;99.90
6373;DHT22;3219;51.362;7.074;2022-12-18T00:21:17;-1.80;99.90
6373;DHT22;3219;51.362;7.074;2022-12-18T00:23:45;-1.80;99.90
6373;DHT22;3219;51.362;7.074;2022-12-18T00:26:14;-1.80;99.90
6373;DHT22;3219;51.362;7.074;2022-12-18T00:28:41;-1.80;99.90
6373;DHT22;3219;51.362;7.074;2022-12-18T00:31:10;-1.80;99.90
6373;DHT22;3219;51.362;7.074;2022-12-18T00:33:38;-1.90;99.90
6373;DHT22;3219;51.362;7.074;2022-12-18T00:36:09;-1.90;99.90
6373;DHT22;3219;51.362;7.074;2022-12-18T00:38:36;-1.80;99.90
6373;DHT22;3219;51.362;7.074;2022-12-18T00:41:04;-1.90;99.90
6373;DHT22;3219;51.362;7.074;2022-12-18T00:43:30;-1.80;99.90
6373;DHT22;3219;51.362;7.074;2022-12-18T00:45:59;-1.80;99.90
6373;DHT22;3219;51.362;7.074;2022-12-18T00:48:26;-1.80;99.90
6373;DHT22;3219;51.362;7.074;2022-12-18T00:50:53;-1.80;99.90
6373;DHT22;3219;51.362;7.074;2022-12-18T00:53:21;-1.80;99.90
6373;DHT22;3219;51.362;7.074;2022-12-18T00:55:48;-1.80;99.90
6373;DHT22;3219;51.362;7.074;2022-12-18T00:58:18;-1.80;99.90
6373;DHT22;3219;51.362;7.074;2022-12-18T01:00:49;-1.80;99.90
6373;DHT22;3219;51.362;7.074;2022-12-18T01:03:19;-1.80;99.90
6373;DHT22;3219;51.362;7.074;2022-12-18T01:05:50;-1.80;99.90
6373;DHT22;3219;51.362;7.074;2022-12-18T01:08:25;-1.80;99.90
6373;DHT22;3219;51.362;7.074;2022-12-18T01:10:55;-1.80;99.90
6373;DHT22;3219;51.362;7.074;2022-12-18T01:13:29;-1.90;99.90
6373;DHT22;3219;51.362;7.074;2022-12-18T01:15:56;-1.80;99.90
6373;DHT22;3219;51.362;7.074;2022-12-18T01:18:37;-1.80;99.90
6373;DHT22;3219;51.362;7.074;2022-12-18T01:21:13;-1.80;99.90
6373;DHT22;3219;51.362;7.074;2022-12-18T01:23:44;-1.80;99.90
6373;DHT22;3219;51.362;7.074;2022-12-18T01:26:16;-1.80;99.90
6373;DHT22;3219;51.362;7.074;2022-12-18T01:28:47;-1.90;99.90
6373;DHT22;3219;51.362;7.074;2022-12-18T01:31:25;-1.80;99.90
6373;DHT22;3219;51.362;7.074;2022-12-18T01:33:55;-1.80;99.90
6373;DHT22;3219;51.362;7.074;2022-12-18T01:36:28;-1.80;99.90
6373;DHT22;3219;51.362;7.074;2022-12-18T01:38:59;-1.90;99.90
6373;DHT22;3219;51.362;7.074;2022-12-18T01:41:28;-1.80;99.90
6373;DHT22;3219;51.362;7.074;2022-12-18T01:44:55;-1.80;99.90
6373;DHT22;3219;51.362;7.074;2022-12-18T01:47:27;-1.80;99.90
6373;DHT22;3219;51.362;7.074;2022-12-18T01:49:57;-1.80;99.90
6373;DHT22;3219;51.362;7.074;2022-12-18T01:52:26;-1.70;99.90
6373;DHT22;3219;51.362;7.074;2022-12-18T01:54:56;-1.70;99.90
6373;DHT22;3219;51.362;7.074;2022-12-18T01:57:24;-1.70;99.90
6373;DHT22;3219;51.362;7.074;2022-12-18T01:59:53;-1.80;99.90
6373;DHT22;3219;51.362;7.074;2022-12-18T02:02:22;-1.80;99.90
6373;DHT22;3219;51.362;7.074;2022-12-18T02:04:49;-1.80;99.90
6373;DHT22;3219;51.362;7.074;2022-12-18T02:07:21;-1.80;99.90
6373;DHT22;3219;51.362;7.074;2022-12-18T02:09:59;-1.90;99.90
6373;DHT22;3219;51.362;7.074;2022-12-18T02:12:31;-1.90;99.90
6373;DHT22;3219;51.362;7.074;2022-12-18T02:15:07;-1.90;99.90
6373;DHT22;3219;51.362;7.074;2022-12-18T02:17:43;-1.80;99.90
6373;DHT22;3219;51.362;7.074;2022-12-18T02:20:17;-1.80;99.90
6373;DHT22;3219;51.362;7.074;2022-12-18T02:23:03;-1.80;99.90
6373;DHT22;3219;51.362;7.074;2022-12-18T02:26:10;-1.80;99.90
6373;DHT22;3219;51.362;7.074;2022-12-18T02:28:44;-1.80;99.90
6373;DHT22;3219;51.362;7.074;2022-12-18T02:31:16;-1.90;99.90
6373;DHT22;3219;51.362;7.074;2022-12-18T02:33:51;-1.90;99.90
6373;DHT22;3219;51.362;7.074;2022-12-18T02:36:25;-1.90;99.90
6373;DHT22;3219;51.362;7.074;2022-12-18T02:38:56;-1.90;99.90
6373;DHT22;3219;51.362;7.074;2022-12-18T02:41:33;-1.90;99.90
6373;DHT22;3219;51.362;7.074;2022-12-18T02:44:07;-1.90;99.90
6373;DHT22;3219;51.362;7.074;2022-12-18T02:46:40;-1.90;99.90
6373;DHT22;3219;51.362;7.074;2022-12-18T02:49:20;-1.90;99.90
6373;DHT22;3219;51.362;7.074;2022-12-18T02:51:53;-1.90;99.90
6373;DHT22;3219;51.362;7.074;2022-12-18T02:54:40;-1.90;99.90
6373;DHT22;3219;51.362;7.074;2022-12-18T02:57:16;-1.90;99.90
6373;DHT22;3219;51.362;7.074;2022-12-18T02:59:56;-1.90;99.90
6373;DHT22;3219;51.362;7.074;2022-12-18T03:02:28;-1.80;99.90
6373;DHT22;3219;51.362;7.074;2022-12-18T03:05:04;-1.80;99.90
6373;DHT22;3219;51.362;7.074;2022-12-18T03:07:39;-1.80;99.90
6373;DHT22;3219;51.362;7.074;2022-12-18T03:10:16;-1.80;99.90
6373;DHT22;3219;51.362;7.074;2022-12-18T03:12:55;-1.80;99.90
6373;DHT22;3219;51.362;7.074;2022-12-18T03:15:30;-1.80;99.90
6373;DHT22;3219;51.362;7.074;2022-12-18T03:18:04;-1.80;99.90
6373;DHT22;3219;51.362;7.074;2022-12-18T03:20:34;-1.90;99.90
6373;DHT22;3219;51.362;7.074;2022-12-18T03:23:08;-1.80;99.90
6373;DHT22;3219;51.362;7.074;2022-12-18T03:25:41;-1.90;99.90
6373;DHT22;3219;51.362;7.074;2022-12-18T03:28:12;-1.90;99.90
6373;DHT22;3219;51.362;7.074;2022-12-18T03:30:44;-1.90;99.90
6373;DHT22;3219;51.362;7.074;2022-12-18T03:33:15;-1.90;99.90
6373;DHT22;3219;51.362;7.074;2022-12-18T03:35:45;-1.80;99.90
6373;DHT22;3219;51.362;7.074;2022-12-18T03:38:13;-1.80;99.90
6373;DHT22;3219;51.362;7.074;2022-12-18T03:40:53;-1.70;99.90
6373;DHT22;3219;51.362;7.074;2022-12-18T03:43:32;-1.80;99.90
6373;DHT22;3219;51.362;7.074;2022-12-18T03:46:05;-1.70;99.90
6373;DHT22;3219;51.362;7.074;2022-12-18T03:48:38;-1.70;99.90
6373;DHT22;3219;51.362;7.074;2022-12-18T03:51:12;-1.70;99.90
6373;DHT22;3219;51.362;7.074;2022-12-18T03:53:46;-1.80;99.90
6373;DHT22;3219;51.362;7.074;2022-12-18T03:56:16;-1.80;99.90
6373;DHT22;3219;51.362;7.074;2022-12-18T03:58:46;-1.80;99.90
6373;DHT22;3219;51.362;7.074;2022-12-18T04:01:16;-1.80;99.90
6373;DHT22;3219;51.362;7.074;2022-12-18T04:03:46;-1.80;99.90
6373;DHT22;3219;51.362;7.074;2022-12-18T04:06:15;-1.80;99.90
6373;DHT22;3219;51.362;7.074;2022-12-18T04:08:43;-1.80;99.90
6373;DHT22;3219;51.362;7.074;2022-12-18T04:11:13;-1.80;99.90
6373;DHT22;3219;51.362;7.074;2022-12-18T04:13:42;-1.80;99.90
6373;DHT22;3219;51.362;7.074;2022-12-18T04:16:10;-1.80;99.90
6373;DHT22;3219;51.362;7.074;2022-12-18T04:18:37;-1.80;99.90
6373;DHT22;3219;51.362;7.074;2022-12-18T04:21:04;-1.90;99.90
6373;DHT22;3219;51.362;7.074;2022-12-18T04:23:31;-1.80;99.90
6373;DHT22;3219;51.362;7.074;2022-12-18T04:25:58;-1.80;99.90
6373;DHT22;3219;51.362;7.074;2022-12-18T04:28:25;-1.80;99.90
6373;DHT22;3219;51.362;7.074;2022-12-18T04:30:52;-1.80;99.90
6373;DHT22;3219;51.362;7.074;2022-12-18T04:33:20;-1.80;99.90
6373;DHT22;3219;51.362;7.074;2022-12-18T04:35:46;-1.80;99.90
6373;DHT22;3219;51.362;7.074;2022-12-18T04:38:13;-1.90;99.90
6373;DHT22;3219;51.362;7.074;2022-12-18T04:40:41;-1.90;99.90
6373;DHT22;3219;51.362;7.074;2022-12-18T04:43:07;-1.90;99.90
6373;DHT22;3219;51.362;7.074;2022-12-18T04:45:34;-1.90;99.90
6373;DHT22;3219;51.362;7.074;2022-12-18T04:48:01;-1.90;99.90
6373;DHT22;3219;51.362;7.074;2022-12-18T04:50:30;-1.90;99.90
6373;DHT22;3219;51.362;7.074;2022-12-18T04:52:57;-1.90;99.90
6373;DHT22;3219;51.362;7.074;2022-12-18T04:55:24;-1.80;99.90
6373;DHT22;3219;51.362;7.074;2022-12-18T04:57:51;-1.80;99.90
6373;DHT22;3219;51.362;7.074;2022-12-18T05:00:18;-1.80;99.90
6373;DHT22;3219;51.362;7.074;2022-12-18T05:02:45;-1.90;99.90
6373;DHT22;3219;51.362;7.074;2022-12-18T05:05:12;-1.90;99.90
6373;DHT22;3219;51.362;7.074;2022-12-18T05:07:41;-1.90;99.90
6373;DHT22;3219;51.362;7.074;2022-12-18T05:10:08;-1.90;99.90
6373;DHT22;3219;51.362;7.074;2022-12-18T05:12:35;-1.90;99.90
6373;DHT22;3219;51.362;7.074;2022-12-18T05:15:22;-1.90;99.90
6373;DHT22;3219;51.362;7.074;2022-12-18T05:17:49;-1.90;99.90
6373;DHT22;3219;51.362;7.074;2022-12-18T05:20:16;-1.90;99.90
6373;DHT22;3219;51.362;7.074;2022-12-18T05:22:45;-1.80;99.90
6373;DHT22;3219;51.362;7.074;2022-12-18T05:25:11;-1.90;99.90
6373;DHT22;3219;51.362;7.074;2022-12-18T05:27:38;-1.90;99.90
6373;DHT22;3219;51.362;7.074;2022-12-18T05:30:06;-1.90;99.90
6373;DHT22;3219;51.362;7.074;2022-12-18T05:32:33;-1.90;99.90
6373;DHT22;3219;51.362;7.074;2022-12-18T05:35:00;-1.90;99.90
6373;DHT22;3219;51.362;7.074;2022-12-18T05:37:27;-1.90;99.90
6373;DHT22;3219;51.362;7.074;2022-12-18T05:39:55;-1.80;99.90
6373;DHT22;3219;51.362;7.074;2022-12-18T05:42:22;-1.80;99.90
6373;DHT22;3219;51.362;7.074;2022-12-18T05:44:49;-1.80;99.90
6373;DHT22;3219;51.362;7.074;2022-12-18T05:47:16;-1.80;99.90
6373;DHT22;3219;51.362;7.074;2022-12-18T05:49:43;-1.70;99.90
6373;DHT22;3219;51.362;7.074;2022-12-18T05:52:09;-1.70;99.90
6373;DHT22;3219;51.362;7.074;2022-12-18T05:54:36;-1.70;99.90
6373;DHT22;3219;51.362;7.074;2022-12-18T05:57:05;-1.60;99.90
6373;DHT22;3219;51.362;7.074;2022-12-18T05:59:32;-1.60;99.90
6373;DHT22;3219;51.362;7.074;2022-12-18T06:01:59;-1.60;99.90
6373;DHT22;3219;51.362;7.074;2022-12-18T06:04:26;-1.60;99.90
6373;DHT22;3219;51.362;7.074;2022-12-18T06:06:54;-1.50;99.90
6373;DHT22;3219;51.362;7.074;2022-12-18T06:09:21;-1.50;99.90
6373;DHT22;3219;51.362;7.074;2022-12-18T06:11:47;-1.50;99.90
6373;DHT22;3219;51.362;7.074;2022-12-18T06:14:16;-1.50;99.90
6373;DHT22;3219;51.362;7.074;2022-12-18T06:16:43;-1.60;99.90
6373;DHT22;3219;51.362;7.074;2022-12-18T06:19:14;-1.50;99.90
6373;DHT22;3219;51.362;7.074;2022-12-18T06:21:41;-1.50;99.90
6373;DHT22;3219;51.362;7.074;2022-12-18T06:24:08;-1.60;99.90
6373;DHT22;3219;51.362;7.074;2022-12-18T06:26:37;-1.70;99.90
6373;DHT22;3219;51.362;7.074;2022-12-18T06:29:04;-1.70;99.90
6373;DHT22;3219;51.362;7.074;2022-12-18T06:31:32;-1.80;99.90
6373;DHT22;3219;51.362;7.074;2022-12-18T06:33:59;-1.80;99.90
6373;DHT22;3219;51.362;7.074;2022-12-18T06:36:28;-1.80;99.90
6373;DHT22;3219;51.362;7.074;2022-12-18T06:38:56;-1.80;99.90
6373;DHT22;3219;51.362;7.074;2022-12-18T06:41:23;-1.80;99.90
6373;DHT22;3219;51.362;7.074;2022-12-18T06:43:50;-1.70;99.90
6373;DHT22;3219;51.362;7.074;2022-12-18T06:46:17;-1.70;99.90
6373;DHT22;3219;51.362;7.074;2022-12-18T06:48:48;-1.70;99.90
6373;DHT22;3219;51.362;7.074;2022-12-18T06:51:17;-1.70;99.90
6373;DHT22;3219;51.362;7.074;2022-12-18T06:53:44;-1.60;99.90
6373;DHT22;3219;51.362;7.074;2022-12-18T06:56:11;-1.60;99.90
6373;DHT22;3219;51.362;7.074;2022-12-18T06:58:37;-1.60;99.90
6373;DHT22;3219;51.362;7.074;2022-12-18T07:01:09;-1.60;99.90
6373;DHT22;3219;51.362;7.074;2022-12-18T07:03:36;-1.60;99.90
6373;DHT22;3219;51.362;7.074;2022-12-18T07:06:11;-1.60;99.90
6373;DHT22;3219;51.362;7.074;2022-12-18T07:08:39;-1.60;99.90
6373;DHT22;3219;51.362;7.074;2022-12-18T07:11:15;-1.60;99.90
6373;DHT22;3219;51.362;7.074;2022-12-18T07:13:51;-1.50;99.90
6373;DHT22;3219;51.362;7.074;2022-12-18T07:16:23;-1.60;99.90
6373;DHT22;3219;51.362;7.074;2022-12-18T07:18:54;-1.50;99.90
6373;DHT22;3219;51.362;7.074;2022-12-18T07:21:26;-1.40;99.90
6373;DHT22;3219;51.362;7.074;2022-12-18T07:23:58;-1.40;99.90
6373;DHT22;3219;51.362;7.074;2022-12-18T07:26:28;-1.30;99.90
6373;DHT22;3219;51.362;7.074;2022-12-18T07:29:06;-1.30;99.90
6373;DHT22;3219;51.362;7.074;2022-12-18T07:31:35;-1.30;99.90
6373;DHT22;3219;51.362;7.074;2022-12-18T07:34:02;-1.30;99.90
6373;DHT22;3219;51.362;7.074;2022-12-18T07:36:35;-1.30;99.90
6373;DHT22;3219;51.362;7.074;2022-12-18T07:39:10;-1.30;99.90
6373;DHT22;3219;51.362;7.074;2022-12-18T07:41:37;-1.20;99.90
6373;DHT22;3219;51.362;7.074;2022-12-18T07:44:19;-1.20;99.90
6373;DHT22;3219;51.362;7.074;2022-12-18T07:46:46;-1.20;99.90
6373;DHT22;3219;51.362;7.074;2022-12-18T07:49:17;-1.10;99.90
6373;DHT22;3219;51.362;7.074;2022-12-18T07:51:46;-1.10;99.90
6373;DHT22;3219;51.362;7.074;2022-12-18T07:54:15;-1.00;99.90
6373;DHT22;3219;51.362;7.074;2022-12-18T07:56:47;-1.00;99.90
6373;DHT22;3219;51.362;7.074;2022-12-18T07:59:23;-1.00;99.90
6373;DHT22;3219;51.362;7.074;2022-12-18T08:01:58;-0.90;99.90
6373;DHT22;3219;51.362;7.074;2022-12-18T08:04:27;-0.80;99.90
6373;DHT22;3219;51.362;7.074;2022-12-18T08:06:58;-0.80;99.90
6373;DHT22;3219;51.362;7.074;2022-12-18T08:09:39;-0.70;99.90
6373;DHT22;3219;51.362;7.074;2022-12-18T08:12:09;-0.70;99.90
6373;DHT22;3219;51.362;7.074;2022-12-18T08:14:36;-0.60;99.90
6373;DHT22;3219;51.362;7.074;2022-12-18T08:17:05;-0.50;99.90
6373;DHT22;3219;51.362;7.074;2022-12-18T08:19:34;-0.50;99.90
6373;DHT22;3219;51.362;7.074;2022-12-18T08:22:11;-0.40;99.90
6373;DHT22;3219;51.362;7.074;2022-12-18T08:24:42;-0.40;99.90
6373;DHT22;3219;51.362;7.074;2022-12-18T08:27:10;-0.30;99.90
6373;DHT22;3219;51.362;7.074;2022-12-18T08:29:40;-0.10;99.90
6373;DHT22;3219;51.362;7.074;2022-12-18T08:32:10;0.10;99.90
6373;DHT22;3219;51.362;7.074;2022-12-18T08:34:40;0.50;99.90
6373;DHT22;3219;51.362;7.074;2022-12-18T08:37:08;0.90;99.90
6373;DHT22;3219;51.362;7.074;2022-12-18T08:39:36;1.40;99.90
6373;DHT22;3219;51.362;7.074;2022-12-18T08:42:04;1.90;99.90
6373;DHT22;3219;51.362;7.074;2022-12-18T08:44:48;2.30;99.90
6373;DHT22;3219;51.362;7.074;2022-12-18T08:47:32;2.60;99.90
6373;DHT22;3219;51.362;7.074;2022-12-18T08:50:01;2.80;99.90
6373;DHT22;3219;51.362;7.074;2022-12-18T08:52:32;2.60;99.90
6373;DHT22;3219;51.362;7.074;2022-12-18T08:55:02;2.70;99.90
6373;DHT22;3219;51.362;7.074;2022-12-18T08:57:32;2.80;99.90
6373;DHT22;3219;51.362;7.074;2022-12-18T09:00:00;2.60;99.90
6373;DHT22;3219;51.362;7.074;2022-12-18T09:02:27;2.80;99.90
6373;DHT22;3219;51.362;7.074;2022-12-18T09:04:54;2.70;99.90
6373;DHT22;3219;51.362;7.074;2022-12-18T09:07:25;2.60;99.90
6373;DHT22;3219;51.362;7.074;2022-12-18T09:09:55;2.40;99.90
6373;DHT22;3219;51.362;7.074;2022-12-18T09:12:25;2.10;99.90
6373;DHT22;3219;51.362;7.074;2022-12-18T09:14:52;1.90;99.90
6373;DHT22;3219;51.362;7.074;2022-12-18T09:17:26;1.70;99.90
6373;DHT22;3219;51.362;7.074;2022-12-18T09:19:54;1.50;99.90
6373;DHT22;3219;51.362;7.074;2022-12-18T09:22:21;1.40;99.90
6373;DHT22;3219;51.362;7.074;2022-12-18T09:24:48;1.30;99.90
6373;DHT22;3219;51.362;7.074;2022-12-18T09:27:18;1.30;99.90
6373;DHT22;3219;51.362;7.074;2022-12-18T09:29:46;1.30;99.90
6373;DHT22;3219;51.362;7.074;2022-12-18T09:32:16;1.40;99.90
6373;DHT22;3219;51.362;7.074;2022-12-18T09:34:42;1.40;99.90
6373;DHT22;3219;51.362;7.074;2022-12-18T09:37:09;1.30;99.90
6373;DHT22;3219;51.362;7.074;2022-12-18T09:39:37;1.30;99.90
6373;DHT22;3219;51.362;7.074;2022-12-18T09:42:05;1.30;99.90
6373;DHT22;3219;51.362;7.074;2022-12-18T09:44:36;1.40;99.90
6373;DHT22;3219;51.362;7.074;2022-12-18T09:47:10;1.40;99.90
6373;DHT22;3219;51.362;7.074;2022-12-18T09:49:42;1.40;99.90
6373;DHT22;3219;51.362;7.074;2022-12-18T09:52:14;1.50;99.90
6373;DHT22;3219;51.362;7.074;2022-12-18T09:54:44;1.50;99.90
6373;DHT22;3219;51.362;7.074;2022-12-18T09:57:15;1.50;99.90
6373;DHT22;3219;51.362;7.074;2022-12-18T09:59:47;1.50;99.90
6373;DHT22;3219;51.362;7.074;2022-12-18T10:02:17;1.50;99.90
6373;DHT22;3219;51.362;7.074;2022-12-18T10:04:49;1.60;99.90
6373;DHT22;3219;51.362;7.074;2022-12-18T10:07:22;1.60;99.90
6373;DHT22;3219;51.362;7.074;2022-12-18T10:09:55;1.60;99.90
6373;DHT22;3219;51.362;7.074;2022-12-18T10:12:30;1.70;99.90
6373;DHT22;3219;51.362;7.074;2022-12-18T10:15:05;1.70;99.90
6373;DHT22;3219;51.362;7.074;2022-12-18T10:17:39;1.70;99.90
6373;DHT22;3219;51.362;7.074;2022-12-18T10:20:13;1.80;99.90
6373;DHT22;3219;51.362;7.074;2022-12-18T10:22:53;1.80;99.90
6373;DHT22;3219;51.362;7.074;2022-12-18T10:25:26;1.80;99.90
6373;DHT22;3219;51.362;7.074;2022-12-18T10:27:58;1.80;99.90
6373;DHT22;3219;51.362;7.074;2022-12-18T10:30:28;1.90;99.90
6373;DHT22;3219;51.362;7.074;2022-12-18T10:33:00;2.00;99.90
6373;DHT22;3219;51.362;7.074;2022-12-18T10:35:30;2.00;99.90
6373;DHT22;3219;51.362;7.074;2022-12-18T10:38:05;2.00;99.90
6373;DHT22;3219;51.362;7.074;2022-12-18T10:40:47;2.00;99.90
6373;DHT22;3219;51.362;7.074;2022-12-18T10:43:19;2.00;99.90
6373;DHT22;3219;51.362;7.074;2022-12-18T10:49:05;2.10;99.90
6373;DHT22;3219;51.362;7.074;2022-12-18T10:51:37;2.10;99.90
6373;DHT22;3219;51.362;7.074;2022-12-18T10:54:17;2.10;99.90
6373;DHT22;3219;51.362;7.074;2022-12-18T11:03:29;2.30;99.90
6373;DHT22;3219;51.362;7.074;2022-12-18T11:06:12;2.40;99.90
6373;DHT22;3219;51.362;7.074;2022-12-18T11:09:03;2.40;99.90
6373;DHT22;3219;51.362;7.074;2022-12-18T11:11:48;2.40;99.90
6373;DHT22;3219;51.362;7.074;2022-12-18T11:14:21;2.40;99.90
6373;DHT22;3219;51.362;7.074;2022-12-18T11:16:49;2.40;99.90
6373;DHT22;3219;51.362;7.074;2022-12-18T11:19:33;2.40;99.90
6373;DHT22;3219;51.362;7.074;2022-12-18T11:22:18;2.40;99.90
6373;DHT22;3219;51.362;7.074;2022-12-18T11:24:52;2.40;99.90
6373;DHT22;3219;51.362;7.074;2022-12-18T11:27:21;2.50;99.90
6373;DHT22;3219;51.362;7.074;2022-12-18T11:29:50;2.50;99.90
6373;DHT22;3219;51.362;7.074;2022-12-18T11:32:38;2.50;99.90
6373;DHT22;3219;51.362;7.074;2022-12-18T11:35:15;2.60;99.90
6373;DHT22;3219;51.362;7.074;2022-12-18T11:37:48;2.60;99.90
6373;DHT22;3219;51.362;7.074;2022-12-18T11:40:21;2.60;99.90
6373;DHT22;3219;51.362;7.074;2022-12-18T11:42:50;2.70;99.90
6373;DHT22;3219;51.362;7.074;2022-12-18T11:45:28;2.70;99.90
6373;DHT22;3219;51.362;7.074;2022-12-18T11:48:03;2.60;99.90
6373;DHT22;3219;51.362;7.074;2022-12-18T11:50:38;2.70;99.90
6373;DHT22;3219;51.362;7.074;2022-12-18T11:53:12;2.70;99.90
6373;DHT22;3219;51.362;7.074;2022-12-18T11:55:44;2.70;99.90
6373;DHT22;3219;51.362;7.074;2022-12-18T11:58:23;2.70;99.90
6373;DHT22;3219;51.362;7.074;2022-12-18T12:00:59;2.70;99.90
6373;DHT22;3219;51.362;7.074;2022-12-18T12:06:45;2.70;99.90
6373;DHT22;3219;51.362;7.074;2022-12-18T12:09:24;2.70;99.90
6373;DHT22;3219;51.362;7.074;2022-12-18T12:12:02;2.70;99.90
6373;DHT22;3219;51.362;7.074;2022-12-18T12:14:43;2.70;99.90
6373;DHT22;3219;51.362;7.074;2022-12-18T12:17:20;2.70;99.90
6373;DHT22;3219;51.362;7.074;2022-12-18T12:19:56;2.60;99.90
6373;DHT22;3219;51.362;7.074;2022-12-18T12:22:34;2.60;99.90
6373;DHT22;3219;51.362;7.074;2022-12-18T12:25:28;2.60;99.90
6373;DHT22;3219;51.362;7.074;2022-12-18T12:28:07;2.60;99.90
6373;DHT22;3219;51.362;7.074;2022-12-18T12:30:44;2.60;99.90
6373;DHT22;3219;51.362;7.074;2022-12-18T12:33:23;2.50;99.90
6373;DHT22;3219;51.362;7.074;2022-12-18T12:36:02;2.50;99.90
6373;DHT22;3219;51.362;7.074;2022-12-18T12:38:36;2.50;99.90
6373;DHT22;3219;51.362;7.074;2022-12-18T12:41:13;2.50;99.90
6373;DHT22;3219;51.362;7.074;2022-12-18T12:43:57;2.40;99.90
6373;DHT22;3219;51.362;7.074;2022-12-18T12:46:25;2.40;99.90
6373;DHT22;3219;51.362;7.074;2022-12-18T12:48:54;2.40;99.90
6373;DHT22;3219;51.362;7.074;2022-12-18T12:51:23;2.30;99.90
6373;DHT22;3219;51.362;7.074;2022-12-18T12:53:52;2.30;99.90
6373;DHT22;3219;51.362;7.074;2022-12-18T12:56:22;2.30;99.90
6373;DHT22;3219;51.362;7.074;2022-12-18T12:58:58;2.30;99.90
6373;DHT22;3219;51.362;7.074;2022-12-18T13:01:33;2.20;99.90
6373;DHT22;3219;51.362;7.074;2022-12-18T13:04:11;2.10;99.90
6373;DHT22;3219;51.362;7.074;2022-12-18T13:06:43;2.10;99.90
6373;DHT22;3219;51.362;7.074;2022-12-18T13:09:13;2.10;99.90
6373;DHT22;3219;51.362;7.074;2022-12-18T13:11:43;2.10;99.90
6373;DHT22;3219;51.362;7.074;2022-12-18T13:14:30;2.10;99.90
6373;DHT22;3219;51.362;7.074;2022-12-18T13:17:31;2.00;99.90
6373;DHT22;3219;51.362;7.074;2022-12-18T13:20:07;2.00;99.90
6373;DHT22;3219;51.362;7.074;2022-12-18T13:22:35;1.90;99.90
6373;DHT22;3219;51.362;7.074;2022-12-18T13:25:20;1.90;99.90
6373;DHT22;3219;51.362;7.074;2022-12-18T13:28:05;1.80;99.90
6373;DHT22;3219;51.362;7.074;2022-12-18T13:30:49;1.80;99.90
6373;DHT22;3219;51.362;7.074;2022-12-18T13:33:40;1.80;99.90
6373;DHT22;3219;51.362;7.074;2022-12-18T13:36:16;1.80;99.90
6373;DHT22;3219;51.362;7.074;2022-12-18T13:39:23;1.70;99.90
6373;DHT22;3219;51.362;7.074;2022-12-18T13:41:52;1.70;99.90
6373;DHT22;3219;51.362;7.074;2022-12-18T13:44:31;1.70;99.90
6373;DHT22;3219;51.362;7.074;2022-12-18T13:46:58;1.70;99.90
6373;DHT22;3219;51.362;7.074;2022-12-18T13:49:29;1.60;99.90
6373;DHT22;3219;51.362;7.074;2022-12-18T13:52:00;1.60;99.90
6373;DHT22;3219;51.362;7.074;2022-12-18T13:54:32;1.60;99.90
6373;DHT22;3219;51.362;7.074;2022-12-18T13:57:00;1.60;99.90
6373;DHT22;3219;51.362;7.074;2022-12-18T13:59:36;1.50;99.90
6373;DHT22;3219;51.362;7.074;2022-12-18T14:02:12;1.50;99.90
6373;DHT22;3219;51.362;7.074;2022-12-18T14:04:40;1.50;99.90
6373;DHT22;3219;51.362;7.074;2022-12-18T14:07:11;1.40;99.90
6373;DHT22;3219;51.362;7.074;2022-12-18T14:09:42;1.40;99.90
6373;DHT22;3219;51.362;7.074;2022-12-18T14:12:17;1.40;99.90
6373;DHT22;3219;51.362;7.074;2022-12-18T14:15:03;1.40;99.90
6373;DHT22;3219;51.362;7.074;2022-12-18T14:17:33;1.40;99.90
6373;DHT22;3219;51.362;7.074;2022-12-18T14:20:03;1.40;99.90
6373;DHT22;3219;51.362;7.074;2022-12-18T14:22:30;1.30;99.90
6373;DHT22;3219;51.362;7.074;2022-12-18T14:25:16;1.30;99.90
6373;DHT22;3219;51.362;7.074;2022-12-18T14:27:45;1.30;99.90
6373;DHT22;3219;51.362;7.074;2022-12-18T14:30:28;1.40;99.90
6373;DHT22;3219;51.362;7.074;2022-12-18T14:33:03;1.40;99.90
6373;DHT22;3219;51.362;7.074;2022-12-18T14:35:30;1.40;99.90
6373;DHT22;3219;51.362;7.074;2022-12-18T14:40:58;1.30;99.90
6373;DHT22;3219;51.362;7.074;2022-12-18T14:43:27;1.30;99.90
6373;DHT22;3219;51.362;7.074;2022-12-18T14:45:56;1.30;99.90
6373;DHT22;3219;51.362;7.074;2022-12-18T14:48:36;1.30;99.90
6373;DHT22;3219;51.362;7.074;2022-12-18T14:51:06;1.20;99.90
6373;DHT22;3219;51.362;7.074;2022-12-18T14:53:36;1.20;99.90
6373;DHT22;3219;51.362;7.074;2022-12-18T14:56:11;1.20;99.90
6373;DHT22;3219;51.362;7.074;2022-12-18T14:58:47;1.20;99.90
6373;DHT22;3219;51.362;7.074;2022-12-18T15:01:25;1.20;99.90
6373;DHT22;3219;51.362;7.074;2022-12-18T15:03:54;1.20;99.90
6373;DHT22;3219;51.362;7.074;2022-12-18T15:06:28;1.20;99.90
6373;DHT22;3219;51.362;7.074;2022-12-18T15:08:56;1.20;99.90
6373;DHT22;3219;51.362;7.074;2022-12-18T15:14:32;1.10;99.90
6373;DHT22;3219;51.362;7.074;2022-12-18T15:17:03;1.10;99.90
6373;DHT22;3219;51.362;7.074;2022-12-18T15:19:39;1.00;99.90
6373;DHT22;3219;51.362;7.074;2022-12-18T15:22:18;1.00;99.90
6373;DHT22;3219;51.362;7.074;2022-12-18T15:24:47;1.00;99.90
6373;DHT22;3219;51.362;7.074;2022-12-18T15:27:26;1.00;99.90
6373;DHT22;3219;51.362;7.074;2022-12-18T15:30:18;1.00;99.90
6373;DHT22;3219;51.362;7.074;2022-12-18T15:32:47;1.00;99.90
6373;DHT22;3219;51.362;7.074;2022-12-18T15:35:18;1.00;99.90
6373;DHT22;3219;51.362;7.074;2022-12-18T15:37:45;1.00;99.90
6373;DHT22;3219;51.362;7.074;2022-12-18T15:40:13;1.00;99.90
6373;DHT22;3219;51.362;7.074;2022-12-18T15:42:40;1.00;99.90
6373;DHT22;3219;51.362;7.074;2022-12-18T15:45:25;0.90;99.90
6373;DHT22;3219;51.362;7.074;2022-12-18T15:47:53;0.90;99.90
6373;DHT22;3219;51.362;7.074;2022-12-18T15:50:21;0.90;99.90
6373;DHT22;3219;51.362;7.074;2022-12-18T15:52:50;0.90;99.90
6373;DHT22;3219;51.362;7.074;2022-12-18T15:55:20;0.90;99.90
6373;DHT22;3219;51.362;7.074;2022-12-18T15:58:05;0.90;99.90
6373;DHT22;3219;51.362;7.074;2022-12-18T16:00:33;0.80;99.90
6373;DHT22;3219;51.362;7.074;2022-12-18T16:03:02;0.80;99.90
6373;DHT22;3219;51.362;7.074;2022-12-18T16:05:29;0.80;99.90
6373;DHT22;3219;51.362;7.074;2022-12-18T16:07:57;0.80;99.90
6373;DHT22;3219;51.362;7.074;2022-12-18T16:10:25;0.80;99.90
6373;DHT22;3219;51.362;7.074;2022-12-18T16:12:52;0.80;99.90
6373;DHT22;3219;51.362;7.074;2022-12-18T16:15:20;0.80;99.90
6373;DHT22;3219;51.362;7.074;2022-12-18T16:17:47;0.80;99.90
6373;DHT22;3219;51.362;7.074;2022-12-18T16:20:17;0.80;99.90
6373;DHT22;3219;51.362;7.074;2022-12-18T16:22:47;0.80;99.90
6373;DHT22;3219;51.362;7.074;2022-12-18T16:25:18;0.80;99.90
6373;DHT22;3219;51.362;7.074;2022-12-18T16:27:46;0.80;99.90
6373;DHT22;3219;51.362;7.074;2022-12-18T16:30:14;0.80;99.90
6373;DHT22;3219;51.362;7.074;2022-12-18T16:32:41;0.70;99.90
6373;DHT22;3219;51.362;7.074;2022-12-18T16:35:10;0.70;99.90
6373;DHT22;3219;51.362;7.074;2022-12-18T16:37:40;0.70;99.90
6373;DHT22;3219;51.362;7.074;2022-12-18T16:40:09;0.70;99.90
6373;DHT22;3219;51.362;7.074;2022-12-18T16:42:38;0.60;99.90
6373;DHT22;3219;51.362;7.074;2022-12-18T16:45:07;0.60;99.90
6373;DHT22;3219;51.362;7.074;2022-12-18T16:47:34;0.60;99.90
6373;DHT22;3219;51.362;7.074;2022-12-18T16:50:01;0.60;99.90
6373;DHT22;3219;51.362;7.074;2022-12-18T16:52:28;0.60;99.90
6373;DHT22;3219;51.362;7.074;2022-12-18T16:54:56;0.70;99.90
6373;DHT22;3219;51.362;7.074;2022-12-18T16:57:23;0.60;99.90
6373;DHT22;3219;51.362;7.074;2022-12-18T16:59:51;0.60;99.90